EPWA/WAW METAR and TAF weather

Enter ICAO airport designator
Station Type Date Time Source
EPWA METAR 2022/09/26 09:00 UTC NOAA

EPWA 260900Z 14007KT 9999 FEW011 14/12 Q1007 NOSIG


Station Type Date Time Source
EPWA Decoded METAR 2022/09/26 09:00 UTC NOAA

Warszawa-Okecie, Poland (EPWA) 52-10N 020-58E 107M
Sep 26, 2022 - 05:00 AM EDT / 2022.09.26 0900 UTC
Wind: from the SE (140 degrees) at 8 MPH (7 KT):0
Visibility: greater than 7 mile(s):0
Sky conditions: mostly clear
Temperature: 57 F (14 C)
Dew Point: 53 F (12 C)
Relative Humidity: 87%
Pressure (altimeter): 29.74 in. Hg (1007 hPa)
ob: EPWA 260900Z 14007KT 9999 FEW011 14/12 Q1007 NOSIG
cycle: 9

Station Type Date Time Source
EPWA TAF 2022/09/26 09:33 UTC NOAA

TAF EPWA 260830Z 2609/2709 13004KT CAVOK
TEMPO 2610/2612 SCT035TCU
TEMPO 2612/2620 -SHRA BKN035CB PROB40
TEMPO 2613/2618 TSRA
BECMG 2620/2623 3000 BR BKN004
TEMPO 2623/2708 0500 FG OVC001

Example: see airport list